sensor_id;sensor_type;location;lat;lon;timestamp;temperature;humidity
20479;DHT22;10398;52.490;13.434;2023-05-07T00:01:39;11.80;99.90
20479;DHT22;10398;52.490;13.434;2023-05-07T00:04:05;11.80;99.90
20479;DHT22;10398;52.490;13.434;2023-05-07T00:06:32;11.90;99.90
20479;DHT22;10398;52.490;13.434;2023-05-07T00:08:59;11.80;99.90
20479;DHT22;10398;52.490;13.434;2023-05-07T00:11:26;11.90;99.90
20479;DHT22;10398;52.490;13.434;2023-05-07T00:13:52;11.80;99.90
20479;DHT22;10398;52.490;13.434;2023-05-07T00:16:18;11.90;99.90
20479;DHT22;10398;52.490;13.434;2023-05-07T00:18:43;11.90;99.90
20479;DHT22;10398;52.490;13.434;2023-05-07T00:21:10;11.90;99.90
20479;DHT22;10398;52.490;13.434;2023-05-07T00:23:36;11.90;99.90
20479;DHT22;10398;52.490;13.434;2023-05-07T00:26:02;11.90;99.90
20479;DHT22;10398;52.490;13.434;2023-05-07T00:28:27;11.90;99.90
20479;DHT22;10398;52.490;13.434;2023-05-07T00:30:53;11.80;99.90
20479;DHT22;10398;52.490;13.434;2023-05-07T00:33:19;11.80;99.90
20479;DHT22;10398;52.490;13.434;2023-05-07T00:35:46;11.70;99.90
20479;DHT22;10398;52.490;13.434;2023-05-07T00:38:11;11.70;99.90
20479;DHT22;10398;52.490;13.434;2023-05-07T00:40:37;11.80;99.90
20479;DHT22;10398;52.490;13.434;2023-05-07T00:43:03;11.70;99.90
20479;DHT22;10398;52.490;13.434;2023-05-07T00:45:29;11.70;99.90
20479;DHT22;10398;52.490;13.434;2023-05-07T00:47:59;11.80;99.90
20479;DHT22;10398;52.490;13.434;2023-05-07T00:50:26;11.70;99.90
20479;DHT22;10398;52.490;13.434;2023-05-07T00:52:53;11.70;99.90
20479;DHT22;10398;52.490;13.434;2023-05-07T00:55:18;11.70;99.90
20479;DHT22;10398;52.490;13.434;2023-05-07T00:57:45;11.70;99.90
20479;DHT22;10398;52.490;13.434;2023-05-07T01:00:11;11.70;99.90
20479;DHT22;10398;52.490;13.434;2023-05-07T01:02:41;11.70;99.90
20479;DHT22;10398;52.490;13.434;2023-05-07T01:05:09;11.70;99.90
20479;DHT22;10398;52.490;13.434;2023-05-07T01:07:38;11.80;99.90
20479;DHT22;10398;52.490;13.434;2023-05-07T01:10:05;11.80;99.90
20479;DHT22;10398;52.490;13.434;2023-05-07T01:12:32;11.80;99.90
20479;DHT22;10398;52.490;13.434;2023-05-07T01:14:58;11.80;99.90
20479;DHT22;10398;52.490;13.434;2023-05-07T01:17:24;11.80;99.90
20479;DHT22;10398;52.490;13.434;2023-05-07T01:19:50;11.70;99.90
20479;DHT22;10398;52.490;13.434;2023-05-07T01:22:17;11.70;99.90
20479;DHT22;10398;52.490;13.434;2023-05-07T01:24:46;11.60;99.90
20479;DHT22;10398;52.490;13.434;2023-05-07T01:27:12;11.60;99.90
20479;DHT22;10398;52.490;13.434;2023-05-07T01:29:38;11.60;99.90
20479;DHT22;10398;52.490;13.434;2023-05-07T01:32:05;11.60;99.90
20479;DHT22;10398;52.490;13.434;2023-05-07T01:34:32;11.50;99.90
20479;DHT22;10398;52.490;13.434;2023-05-07T01:37:00;11.50;99.90
20479;DHT22;10398;52.490;13.434;2023-05-07T01:39:29;11.60;99.90
20479;DHT22;10398;52.490;13.434;2023-05-07T01:41:55;11.60;99.90
20479;DHT22;10398;52.490;13.434;2023-05-07T01:44:22;11.60;99.90
20479;DHT22;10398;52.490;13.434;2023-05-07T01:46:48;11.60;99.90
20479;DHT22;10398;52.490;13.434;2023-05-07T01:49:15;11.70;99.90
20479;DHT22;10398;52.490;13.434;2023-05-07T01:51:41;11.70;99.90
20479;DHT22;10398;52.490;13.434;2023-05-07T01:54:07;11.70;99.90
20479;DHT22;10398;52.490;13.434;2023-05-07T01:56:33;11.80;99.90
20479;DHT22;10398;52.490;13.434;2023-05-07T01:58:59;11.80;99.90
20479;DHT22;10398;52.490;13.434;2023-05-07T02:01:25;11.80;99.90
20479;DHT22;10398;52.490;13.434;2023-05-07T02:03:51;11.70;99.90
20479;DHT22;10398;52.490;13.434;2023-05-07T02:06:16;11.70;99.90
20479;DHT22;10398;52.490;13.434;2023-05-07T02:08:42;11.70;99.90
20479;DHT22;10398;52.490;13.434;2023-05-07T02:11:08;11.60;99.90
20479;DHT22;10398;52.490;13.434;2023-05-07T02:13:34;11.60;99.90
20479;DHT22;10398;52.490;13.434;2023-05-07T02:16:00;11.60;99.90
20479;DHT22;10398;52.490;13.434;2023-05-07T02:18:26;11.60;99.90
20479;DHT22;10398;52.490;13.434;2023-05-07T02:20:52;11.60;99.90
20479;DHT22;10398;52.490;13.434;2023-05-07T02:23:17;11.60;99.90
20479;DHT22;10398;52.490;13.434;2023-05-07T02:25:43;11.60;99.90
20479;DHT22;10398;52.490;13.434;2023-05-07T02:28:09;11.50;99.90
20479;DHT22;10398;52.490;13.434;2023-05-07T02:30:35;11.60;99.90
20479;DHT22;10398;52.490;13.434;2023-05-07T02:33:00;11.70;99.90
20479;DHT22;10398;52.490;13.434;2023-05-07T02:35:26;11.70;99.90
20479;DHT22;10398;52.490;13.434;2023-05-07T02:37:51;11.70;99.90
20479;DHT22;10398;52.490;13.434;2023-05-07T02:40:17;11.70;99.90
20479;DHT22;10398;52.490;13.434;2023-05-07T02:42:43;11.60;99.90
20479;DHT22;10398;52.490;13.434;2023-05-07T02:45:09;11.70;99.90
20479;DHT22;10398;52.490;13.434;2023-05-07T02:47:35;11.80;99.90
20479;DHT22;10398;52.490;13.434;2023-05-07T02:50:01;11.70;99.90
20479;DHT22;10398;52.490;13.434;2023-05-07T02:52:26;11.80;99.90
20479;DHT22;10398;52.490;13.434;2023-05-07T02:54:52;11.70;99.90
20479;DHT22;10398;52.490;13.434;2023-05-07T02:57:17;11.70;99.90
20479;DHT22;10398;52.490;13.434;2023-05-07T02:59:43;11.70;99.90
20479;DHT22;10398;52.490;13.434;2023-05-07T03:02:09;11.70;99.90
20479;DHT22;10398;52.490;13.434;2023-05-07T03:04:35;11.70;99.90
20479;DHT22;10398;52.490;13.434;2023-05-07T03:07:01;11.70;99.90
20479;DHT22;10398;52.490;13.434;2023-05-07T03:09:26;11.70;99.90
20479;DHT22;10398;52.490;13.434;2023-05-07T03:11:52;11.70;99.90
20479;DHT22;10398;52.490;13.434;2023-05-07T03:14:17;11.70;99.90
20479;DHT22;10398;52.490;13.434;2023-05-07T03:16:43;11.70;99.90
20479;DHT22;10398;52.490;13.434;2023-05-07T03:19:09;11.70;99.90
20479;DHT22;10398;52.490;13.434;2023-05-07T03:21:34;11.70;99.90
20479;DHT22;10398;52.490;13.434;2023-05-07T03:24:00;11.70;99.90
20479;DHT22;10398;52.490;13.434;2023-05-07T03:26:26;11.70;99.90
20479;DHT22;10398;52.490;13.434;2023-05-07T03:28:52;11.60;99.90
20479;DHT22;10398;52.490;13.434;2023-05-07T03:31:17;11.60;99.90
20479;DHT22;10398;52.490;13.434;2023-05-07T03:33:54;11.60;99.90
20479;DHT22;10398;52.490;13.434;2023-05-07T03:36:20;11.70;99.90
20479;DHT22;10398;52.490;13.434;2023-05-07T03:38:46;11.70;99.90
20479;DHT22;10398;52.490;13.434;2023-05-07T03:41:12;11.60;99.90
20479;DHT22;10398;52.490;13.434;2023-05-07T03:43:38;11.60;99.90
20479;DHT22;10398;52.490;13.434;2023-05-07T03:46:03;11.60;99.90
20479;DHT22;10398;52.490;13.434;2023-05-07T03:48:29;11.70;99.90
20479;DHT22;10398;52.490;13.434;2023-05-07T03:50:56;11.70;99.90
20479;DHT22;10398;52.490;13.434;2023-05-07T03:53:22;11.70;99.90
20479;DHT22;10398;52.490;13.434;2023-05-07T03:55:47;11.70;99.90
20479;DHT22;10398;52.490;13.434;2023-05-07T03:58:13;11.70;99.90
20479;DHT22;10398;52.490;13.434;2023-05-07T04:00:39;11.70;99.90
20479;DHT22;10398;52.490;13.434;2023-05-07T04:03:06;11.70;99.90
20479;DHT22;10398;52.490;13.434;2023-05-07T04:05:31;11.70;99.90
20479;DHT22;10398;52.490;13.434;2023-05-07T04:08:00;11.70;99.90
20479;DHT22;10398;52.490;13.434;2023-05-07T04:10:26;11.60;99.90
20479;DHT22;10398;52.490;13.434;2023-05-07T04:12:53;11.70;99.90
20479;DHT22;10398;52.490;13.434;2023-05-07T04:15:19;11.70;99.90
20479;DHT22;10398;52.490;13.434;2023-05-07T04:17:45;11.70;99.90
20479;DHT22;10398;52.490;13.434;2023-05-07T04:20:15;11.70;99.90
20479;DHT22;10398;52.490;13.434;2023-05-07T04:22:41;11.70;99.90
20479;DHT22;10398;52.490;13.434;2023-05-07T04:25:07;11.70;99.90
20479;DHT22;10398;52.490;13.434;2023-05-07T04:27:34;11.60;99.90
20479;DHT22;10398;52.490;13.434;2023-05-07T04:30:00;11.60;99.90
20479;DHT22;10398;52.490;13.434;2023-05-07T04:32:26;11.70;99.90
20479;DHT22;10398;52.490;13.434;2023-05-07T04:34:52;11.60;99.90
20479;DHT22;10398;52.490;13.434;2023-05-07T04:37:17;11.60;99.90
20479;DHT22;10398;52.490;13.434;2023-05-07T04:39:43;11.70;99.90
20479;DHT22;10398;52.490;13.434;2023-05-07T04:42:09;11.60;99.90
20479;DHT22;10398;52.490;13.434;2023-05-07T04:44:35;11.70;99.90
20479;DHT22;10398;52.490;13.434;2023-05-07T04:47:02;11.60;99.90
20479;DHT22;10398;52.490;13.434;2023-05-07T04:49:28;11.60;99.90
20479;DHT22;10398;52.490;13.434;2023-05-07T04:51:53;11.60;99.90
20479;DHT22;10398;52.490;13.434;2023-05-07T04:54:19;11.60;99.90
20479;DHT22;10398;52.490;13.434;2023-05-07T04:56:45;11.60;99.90
20479;DHT22;10398;52.490;13.434;2023-05-07T04:59:10;11.60;99.90
20479;DHT22;10398;52.490;13.434;2023-05-07T05:01:36;11.70;99.90
20479;DHT22;10398;52.490;13.434;2023-05-07T05:04:01;11.60;99.90
20479;DHT22;10398;52.490;13.434;2023-05-07T05:06:27;11.70;99.90
20479;DHT22;10398;52.490;13.434;2023-05-07T05:08:53;11.70;99.90
20479;DHT22;10398;52.490;13.434;2023-05-07T05:11:18;11.70;99.90
20479;DHT22;10398;52.490;13.434;2023-05-07T05:13:44;11.70;99.90
20479;DHT22;10398;52.490;13.434;2023-05-07T05:16:10;11.80;99.90
20479;DHT22;10398;52.490;13.434;2023-05-07T05:18:35;11.80;99.90
20479;DHT22;10398;52.490;13.434;2023-05-07T05:21:01;11.70;99.90
20479;DHT22;10398;52.490;13.434;2023-05-07T05:23:27;11.80;99.90
20479;DHT22;10398;52.490;13.434;2023-05-07T05:25:59;11.90;99.90
20479;DHT22;10398;52.490;13.434;2023-05-07T05:28:25;11.90;99.90
20479;DHT22;10398;52.490;13.434;2023-05-07T05:30:51;11.90;99.90
20479;DHT22;10398;52.490;13.434;2023-05-07T05:33:17;11.90;99.90
20479;DHT22;10398;52.490;13.434;2023-05-07T05:35:43;11.90;99.90
20479;DHT22;10398;52.490;13.434;2023-05-07T05:38:08;12.00;99.90
20479;DHT22;10398;52.490;13.434;2023-05-07T05:40:34;12.00;99.90
20479;DHT22;10398;52.490;13.434;2023-05-07T05:43:00;11.90;99.90
20479;DHT22;10398;52.490;13.434;2023-05-07T05:45:25;11.70;99.90
20479;DHT22;10398;52.490;13.434;2023-05-07T05:47:51;11.80;99.90
20479;DHT22;10398;52.490;13.434;2023-05-07T05:50:17;11.80;99.90
20479;DHT22;10398;52.490;13.434;2023-05-07T05:52:42;11.80;99.90
20479;DHT22;10398;52.490;13.434;2023-05-07T05:55:08;11.70;99.90
20479;DHT22;10398;52.490;13.434;2023-05-07T05:57:34;11.80;99.90
20479;DHT22;10398;52.490;13.434;2023-05-07T06:00:01;11.90;99.90
20479;DHT22;10398;52.490;13.434;2023-05-07T06:02:27;11.90;99.90
20479;DHT22;10398;52.490;13.434;2023-05-07T06:04:53;11.90;99.90
20479;DHT22;10398;52.490;13.434;2023-05-07T06:07:19;11.80;99.90
20479;DHT22;10398;52.490;13.434;2023-05-07T06:09:45;11.80;99.90
20479;DHT22;10398;52.490;13.434;2023-05-07T06:12:11;11.90;99.90
20479;DHT22;10398;52.490;13.434;2023-05-07T06:14:36;11.80;99.90
20479;DHT22;10398;52.490;13.434;2023-05-07T06:17:02;11.70;99.90
20479;DHT22;10398;52.490;13.434;2023-05-07T06:19:28;11.70;99.90
20479;DHT22;10398;52.490;13.434;2023-05-07T06:21:54;11.70;99.90
20479;DHT22;10398;52.490;13.434;2023-05-07T06:24:21;11.80;99.90
20479;DHT22;10398;52.490;13.434;2023-05-07T06:26:47;11.70;99.90
20479;DHT22;10398;52.490;13.434;2023-05-07T06:29:12;11.70;99.90
20479;DHT22;10398;52.490;13.434;2023-05-07T06:31:38;11.60;99.90
20479;DHT22;10398;52.490;13.434;2023-05-07T06:34:04;11.70;99.90
20479;DHT22;10398;52.490;13.434;2023-05-07T06:36:30;11.80;99.90
20479;DHT22;10398;52.490;13.434;2023-05-07T06:38:56;11.90;99.90
20479;DHT22;10398;52.490;13.434;2023-05-07T06:41:21;11.90;99.90
20479;DHT22;10398;52.490;13.434;2023-05-07T06:43:47;12.00;99.90
20479;DHT22;10398;52.490;13.434;2023-05-07T06:46:13;12.00;99.90
20479;DHT22;10398;52.490;13.434;2023-05-07T06:48:38;12.00;99.90
20479;DHT22;10398;52.490;13.434;2023-05-07T06:51:04;12.00;99.90
20479;DHT22;10398;52.490;13.434;2023-05-07T06:53:30;12.00;99.90
20479;DHT22;10398;52.490;13.434;2023-05-07T06:55:56;12.10;99.90
20479;DHT22;10398;52.490;13.434;2023-05-07T06:58:22;12.10;99.90
20479;DHT22;10398;52.490;13.434;2023-05-07T07:00:48;12.10;99.90
20479;DHT22;10398;52.490;13.434;2023-05-07T07:03:13;12.20;99.90
20479;DHT22;10398;52.490;13.434;2023-05-07T07:05:41;12.30;99.90
20479;DHT22;10398;52.490;13.434;2023-05-07T07:08:07;12.30;99.90
20479;DHT22;10398;52.490;13.434;2023-05-07T07:10:33;12.30;99.90
20479;DHT22;10398;52.490;13.434;2023-05-07T07:12:58;12.10;99.90
20479;DHT22;10398;52.490;13.434;2023-05-07T07:15:24;12.10;99.90
20479;DHT22;10398;52.490;13.434;2023-05-07T07:17:50;12.30;99.90
20479;DHT22;10398;52.490;13.434;2023-05-07T07:20:16;12.30;99.90
20479;DHT22;10398;52.490;13.434;2023-05-07T07:22:42;12.50;99.90
20479;DHT22;10398;52.490;13.434;2023-05-07T07:25:08;12.50;99.90
20479;DHT22;10398;52.490;13.434;2023-05-07T07:27:34;12.60;99.90
20479;DHT22;10398;52.490;13.434;2023-05-07T07:29:59;12.70;99.90
20479;DHT22;10398;52.490;13.434;2023-05-07T07:32:25;12.70;99.90
20479;DHT22;10398;52.490;13.434;2023-05-07T07:34:51;12.80;99.90
20479;DHT22;10398;52.490;13.434;2023-05-07T07:37:17;12.80;99.90
20479;DHT22;10398;52.490;13.434;2023-05-07T07:39:42;12.90;99.90
20479;DHT22;10398;52.490;13.434;2023-05-07T07:42:08;13.10;99.90
20479;DHT22;10398;52.490;13.434;2023-05-07T07:44:34;13.10;99.90
20479;DHT22;10398;52.490;13.434;2023-05-07T07:47:00;13.30;99.90
20479;DHT22;10398;52.490;13.434;2023-05-07T07:49:26;13.30;99.90
20479;DHT22;10398;52.490;13.434;2023-05-07T07:51:52;13.40;99.90
20479;DHT22;10398;52.490;13.434;2023-05-07T07:54:17;13.50;99.90
20479;DHT22;10398;52.490;13.434;2023-05-07T07:56:43;13.50;99.90
20479;DHT22;10398;52.490;13.434;2023-05-07T07:59:09;13.40;99.90
20479;DHT22;10398;52.490;13.434;2023-05-07T08:01:34;13.60;99.90
20479;DHT22;10398;52.490;13.434;2023-05-07T08:04:00;13.80;99.90
20479;DHT22;10398;52.490;13.434;2023-05-07T08:06:28;14.10;99.90
20479;DHT22;10398;52.490;13.434;2023-05-07T08:08:54;14.30;99.90
20479;DHT22;10398;52.490;13.434;2023-05-07T08:11:20;14.40;99.90
20479;DHT22;10398;52.490;13.434;2023-05-07T08:13:47;14.60;99.90
20479;DHT22;10398;52.490;13.434;2023-05-07T08:16:13;14.90;99.90
20479;DHT22;10398;52.490;13.434;2023-05-07T08:18:39;14.90;99.90
20479;DHT22;10398;52.490;13.434;2023-05-07T08:21:04;15.10;99.90
20479;DHT22;10398;52.490;13.434;2023-05-07T08:23:30;15.10;99.90
20479;DHT22;10398;52.490;13.434;2023-05-07T08:25:56;15.20;99.90
20479;DHT22;10398;52.490;13.434;2023-05-07T08:28:21;15.30;99.90
20479;DHT22;10398;52.490;13.434;2023-05-07T08:30:47;15.50;99.90
20479;DHT22;10398;52.490;13.434;2023-05-07T08:33:13;15.70;99.90
20479;DHT22;10398;52.490;13.434;2023-05-07T08:35:39;15.80;99.90
20479;DHT22;10398;52.490;13.434;2023-05-07T08:38:04;15.80;99.90
20479;DHT22;10398;52.490;13.434;2023-05-07T08:40:35;15.90;99.90
20479;DHT22;10398;52.490;13.434;2023-05-07T08:43:02;16.20;99.90
20479;DHT22;10398;52.490;13.434;2023-05-07T08:45:30;16.30;99.90
20479;DHT22;10398;52.490;13.434;2023-05-07T08:47:59;16.40;99.90
20479;DHT22;10398;52.490;13.434;2023-05-07T08:50:27;16.50;99.90
20479;DHT22;10398;52.490;13.434;2023-05-07T08:52:53;16.40;99.90
20479;DHT22;10398;52.490;13.434;2023-05-07T08:55:18;16.60;99.90
20479;DHT22;10398;52.490;13.434;2023-05-07T08:57:45;16.60;99.90
20479;DHT22;10398;52.490;13.434;2023-05-07T09:00:12;16.70;99.90
20479;DHT22;10398;52.490;13.434;2023-05-07T09:02:38;16.80;99.90
20479;DHT22;10398;52.490;13.434;2023-05-07T09:05:04;16.80;99.90
20479;DHT22;10398;52.490;13.434;2023-05-07T09:07:30;16.80;99.90
20479;DHT22;10398;52.490;13.434;2023-05-07T09:09:56;16.90;99.90
20479;DHT22;10398;52.490;13.434;2023-05-07T09:12:23;16.80;99.90
20479;DHT22;10398;52.490;13.434;2023-05-07T09:14:49;16.70;99.90
20479;DHT22;10398;52.490;13.434;2023-05-07T09:17:16;16.70;99.90
20479;DHT22;10398;52.490;13.434;2023-05-07T09:19:46;16.70;99.90
20479;DHT22;10398;52.490;13.434;2023-05-07T09:22:15;16.70;99.90
20479;DHT22;10398;52.490;13.434;2023-05-07T09:24:40;16.80;99.90
20479;DHT22;10398;52.490;13.434;2023-05-07T09:27:07;16.70;99.90
20479;DHT22;10398;52.490;13.434;2023-05-07T09:29:34;16.70;99.90
20479;DHT22;10398;52.490;13.434;2023-05-07T09:32:07;16.70;99.90
20479;DHT22;10398;52.490;13.434;2023-05-07T09:34:34;16.80;99.90
20479;DHT22;10398;52.490;13.434;2023-05-07T09:37:04;16.90;99.90
20479;DHT22;10398;52.490;13.434;2023-05-07T09:39:40;16.90;99.90
20479;DHT22;10398;52.490;13.434;2023-05-07T09:42:06;16.90;99.90
20479;DHT22;10398;52.490;13.434;2023-05-07T09:44:33;16.80;99.90
20479;DHT22;10398;52.490;13.434;2023-05-07T09:47:00;16.80;99.90
20479;DHT22;10398;52.490;13.434;2023-05-07T09:49:29;16.80;99.90
20479;DHT22;10398;52.490;13.434;2023-05-07T09:51:56;16.80;99.90
20479;DHT22;10398;52.490;13.434;2023-05-07T09:54:25;16.90;99.90
20479;DHT22;10398;52.490;13.434;2023-05-07T09:56:52;16.80;99.90
20479;DHT22;10398;52.490;13.434;2023-05-07T09:59:18;16.80;99.90
20479;DHT22;10398;52.490;13.434;2023-05-07T10:01:45;16.90;99.90
20479;DHT22;10398;52.490;13.434;2023-05-07T10:04:11;17.00;99.90
20479;DHT22;10398;52.490;13.434;2023-05-07T10:06:38;16.60;99.90
20479;DHT22;10398;52.490;13.434;2023-05-07T10:09:04;16.40;99.90
20479;DHT22;10398;52.490;13.434;2023-05-07T10:11:34;16.20;99.90
20479;DHT22;10398;52.490;13.434;2023-05-07T10:14:03;16.00;99.90
20479;DHT22;10398;52.490;13.434;2023-05-07T10:16:35;15.60;99.90
20479;DHT22;10398;52.490;13.434;2023-05-07T10:19:05;15.50;99.90
20479;DHT22;10398;52.490;13.434;2023-05-07T10:21:35;15.30;99.90
20479;DHT22;10398;52.490;13.434;2023-05-07T10:24:08;15.40;99.90
20479;DHT22;10398;52.490;13.434;2023-05-07T10:26:44;15.80;99.90
20479;DHT22;10398;52.490;13.434;2023-05-07T10:34:39;16.30;99.90
20479;DHT22;10398;52.490;13.434;2023-05-07T10:37:06;16.40;99.90
20479;DHT22;10398;52.490;13.434;2023-05-07T10:39:32;16.50;99.90
20479;DHT22;10398;52.490;13.434;2023-05-07T10:42:11;16.70;99.90
20479;DHT22;10398;52.490;13.434;2023-05-07T10:44:37;16.80;99.90
20479;DHT22;10398;52.490;13.434;2023-05-07T10:47:07;16.80;99.90
20479;DHT22;10398;52.490;13.434;2023-05-07T10:49:35;16.90;99.90
20479;DHT22;10398;52.490;13.434;2023-05-07T10:52:17;17.10;99.90
20479;DHT22;10398;52.490;13.434;2023-05-07T10:54:43;17.00;99.90
20479;DHT22;10398;52.490;13.434;2023-05-07T10:59:57;17.30;99.90
20479;DHT22;10398;52.490;13.434;2023-05-07T11:02:23;17.40;99.90
20479;DHT22;10398;52.490;13.434;2023-05-07T11:05:21;17.50;99.90
20479;DHT22;10398;52.490;13.434;2023-05-07T11:08:03;17.60;99.90
20479;DHT22;10398;52.490;13.434;2023-05-07T11:10:56;17.80;99.90
20479;DHT22;10398;52.490;13.434;2023-05-07T11:13:52;17.60;99.90
20479;DHT22;10398;52.490;13.434;2023-05-07T11:16:22;17.60;99.90
20479;DHT22;10398;52.490;13.434;2023-05-07T11:18:50;17.70;99.90
20479;DHT22;10398;52.490;13.434;2023-05-07T11:21:35;17.70;99.90
20479;DHT22;10398;52.490;13.434;2023-05-07T11:24:02;17.90;99.90
20479;DHT22;10398;52.490;13.434;2023-05-07T11:26:30;18.10;99.90
20479;DHT22;10398;52.490;13.434;2023-05-07T11:28:57;18.30;99.90
20479;DHT22;10398;52.490;13.434;2023-05-07T11:31:26;18.70;99.90
20479;DHT22;10398;52.490;13.434;2023-05-07T11:33:54;18.80;99.90
20479;DHT22;10398;52.490;13.434;2023-05-07T11:36:22;18.70;99.90
20479;DHT22;10398;52.490;13.434;2023-05-07T11:38:48;18.80;99.90
20479;DHT22;10398;52.490;13.434;2023-05-07T11:41:15;18.50;99.90
20479;DHT22;10398;52.490;13.434;2023-05-07T11:43:57;18.20;99.90
20479;DHT22;10398;52.490;13.434;2023-05-07T11:46:23;18.00;99.90
20479;DHT22;10398;52.490;13.434;2023-05-07T11:48:48;18.00;99.90
20479;DHT22;10398;52.490;13.434;2023-05-07T11:51:19;18.10;99.90
20479;DHT22;10398;52.490;13.434;2023-05-07T11:53:45;18.20;99.90
20479;DHT22;10398;52.490;13.434;2023-05-07T11:56:13;18.50;99.90
20479;DHT22;10398;52.490;13.434;2023-05-07T11:58:40;18.80;99.90
20479;DHT22;10398;52.490;13.434;2023-05-07T12:01:10;19.00;99.90
20479;DHT22;10398;52.490;13.434;2023-05-07T12:03:40;19.30;99.90
20479;DHT22;10398;52.490;13.434;2023-05-07T12:06:11;19.40;99.90
20479;DHT22;10398;52.490;13.434;2023-05-07T12:08:38;18.80;99.90
20479;DHT22;10398;52.490;13.434;2023-05-07T12:11:07;18.80;99.90
20479;DHT22;10398;52.490;13.434;2023-05-07T12:13:34;18.70;99.90
20479;DHT22;10398;52.490;13.434;2023-05-07T12:15:59;18.50;99.90
20479;DHT22;10398;52.490;13.434;2023-05-07T12:18:28;18.50;99.90
20479;DHT22;10398;52.490;13.434;2023-05-07T12:20:55;18.50;99.90
20479;DHT22;10398;52.490;13.434;2023-05-07T12:23:22;18.60;99.90
20479;DHT22;10398;52.490;13.434;2023-05-07T12:25:47;18.70;99.90
20479;DHT22;10398;52.490;13.434;2023-05-07T12:28:18;18.90;99.90
20479;DHT22;10398;52.490;13.434;2023-05-07T12:30:45;19.00;99.90
20479;DHT22;10398;52.490;13.434;2023-05-07T12:33:11;19.10;99.90
20479;DHT22;10398;52.490;13.434;2023-05-07T12:35:39;19.20;99.90
20479;DHT22;10398;52.490;13.434;2023-05-07T12:38:12;19.40;99.90
20479;DHT22;10398;52.490;13.434;2023-05-07T12:40:40;19.40;99.90
20479;DHT22;10398;52.490;13.434;2023-05-07T12:43:07;19.40;99.90
20479;DHT22;10398;52.490;13.434;2023-05-07T12:45:37;19.30;99.90
20479;DHT22;10398;52.490;13.434;2023-05-07T12:48:06;19.30;99.90
20479;DHT22;10398;52.490;13.434;2023-05-07T12:50:33;19.00;99.90
20479;DHT22;10398;52.490;13.434;2023-05-07T12:52:59;18.90;99.90
20479;DHT22;10398;52.490;13.434;2023-05-07T12:55:25;18.80;99.90
20479;DHT22;10398;52.490;13.434;2023-05-07T12:57:52;18.80;99.90
20479;DHT22;10398;52.490;13.434;2023-05-07T13:00:36;18.80;99.90
20479;DHT22;10398;52.490;13.434;2023-05-07T13:03:01;18.90;99.90
20479;DHT22;10398;52.490;13.434;2023-05-07T13:05:27;18.90;99.90
20479;DHT22;10398;52.490;13.434;2023-05-07T13:07:56;18.70;99.90
20479;DHT22;10398;52.490;13.434;2023-05-07T13:10:23;18.70;99.90
20479;DHT22;10398;52.490;13.434;2023-05-07T13:12:49;18.70;99.90
20479;DHT22;10398;52.490;13.434;2023-05-07T13:15:15;18.80;99.90
20479;DHT22;10398;52.490;13.434;2023-05-07T13:17:41;18.80;99.90
20479;DHT22;10398;52.490;13.434;2023-05-07T13:20:08;18.60;99.90
20479;DHT22;10398;52.490;13.434;2023-05-07T13:22:34;18.60;99.90
20479;DHT22;10398;52.490;13.434;2023-05-07T13:25:00;18.50;99.90
20479;DHT22;10398;52.490;13.434;2023-05-07T13:27:25;18.50;99.90
20479;DHT22;10398;52.490;13.434;2023-05-07T13:29:51;18.40;99.90
20479;DHT22;10398;52.490;13.434;2023-05-07T13:32:17;18.50;99.90
20479;DHT22;10398;52.490;13.434;2023-05-07T13:34:43;18.30;99.90
20479;DHT22;10398;52.490;13.434;2023-05-07T13:37:08;18.20;99.90
20479;DHT22;10398;52.490;13.434;2023-05-07T13:39:34;18.30;99.90
20479;DHT22;10398;52.490;13.434;2023-05-07T13:42:00;18.30;99.90
20479;DHT22;10398;52.490;13.434;2023-05-07T13:44:26;18.50;99.90
20479;DHT22;10398;52.490;13.434;2023-05-07T13:46:52;18.60;99.90
20479;DHT22;10398;52.490;13.434;2023-05-07T13:49:17;18.50;99.90
20479;DHT22;10398;52.490;13.434;2023-05-07T13:51:43;18.50;99.90
20479;DHT22;10398;52.490;13.434;2023-05-07T13:54:09;18.60;99.90
20479;DHT22;10398;52.490;13.434;2023-05-07T13:56:34;18.60;99.90
20479;DHT22;10398;52.490;13.434;2023-05-07T13:59:00;18.60;99.90
20479;DHT22;10398;52.490;13.434;2023-05-07T14:01:26;18.60;99.90
20479;DHT22;10398;52.490;13.434;2023-05-07T14:03:52;18.60;99.90
20479;DHT22;10398;52.490;13.434;2023-05-07T14:06:18;18.60;99.90
20479;DHT22;10398;52.490;13.434;2023-05-07T14:08:43;18.70;99.90
20479;DHT22;10398;52.490;13.434;2023-05-07T14:11:09;18.50;99.90
20479;DHT22;10398;52.490;13.434;2023-05-07T14:13:34;18.60;99.90
20479;DHT22;10398;52.490;13.434;2023-05-07T14:16:00;18.60;99.90
20479;DHT22;10398;52.490;13.434;2023-05-07T14:18:26;18.70;99.90
20479;DHT22;10398;52.490;13.434;2023-05-07T14:20:54;18.90;99.90
20479;DHT22;10398;52.490;13.434;2023-05-07T14:23:20;19.00;99.90
20479;DHT22;10398;52.490;13.434;2023-05-07T14:25:50;19.00;99.90
20479;DHT22;10398;52.490;13.434;2023-05-07T14:28:16;18.90;99.90
20479;DHT22;10398;52.490;13.434;2023-05-07T14:30:42;19.00;99.90
20479;DHT22;10398;52.490;13.434;2023-05-07T14:33:07;19.10;99.90
20479;DHT22;10398;52.490;13.434;2023-05-07T14:35:33;19.20;99.90
20479;DHT22;10398;52.490;13.434;2023-05-07T14:37:59;19.30;99.90
20479;DHT22;10398;52.490;13.434;2023-05-07T14:40:25;19.10;99.90
20479;DHT22;10398;52.490;13.434;2023-05-07T14:42:50;19.20;99.90
20479;DHT22;10398;52.490;13.434;2023-05-07T14:45:16;19.40;99.90
20479;DHT22;10398;52.490;13.434;2023-05-07T14:47:42;19.50;99.90
20479;DHT22;10398;52.490;13.434;2023-05-07T14:50:08;19.70;99.90
20479;DHT22;10398;52.490;13.434;2023-05-07T14:52:34;19.70;99.90
20479;DHT22;10398;52.490;13.434;2023-05-07T14:54:59;19.60;99.90
20479;DHT22;10398;52.490;13.434;2023-05-07T14:57:25;19.50;99.90
20479;DHT22;10398;52.490;13.434;2023-05-07T14:59:51;19.20;99.90
20479;DHT22;10398;52.490;13.434;2023-05-07T15:02:16;18.70;99.90
20479;DHT22;10398;52.490;13.434;2023-05-07T15:04:43;18.60;99.90
20479;DHT22;10398;52.490;13.434;2023-05-07T15:07:12;18.60;99.90
20479;DHT22;10398;52.490;13.434;2023-05-07T15:09:44;18.80;99.90
20479;DHT22;10398;52.490;13.434;2023-05-07T15:12:10;18.70;99.90
20479;DHT22;10398;52.490;13.434;2023-05-07T15:14:37;18.70;99.90
20479;DHT22;10398;52.490;13.434;2023-05-07T15:17:03;18.70;99.90
20479;DHT22;10398;52.490;13.434;2023-05-07T15:19:28;18.70;99.90
20479;DHT22;10398;52.490;13.434;2023-05-07T15:21:59;18.60;99.90